createdAt,value
2023-04-27T00:03:36.435Z,16.228442
2023-04-27T00:08:37.839Z,15.764228
2023-04-27T00:13:39.142Z,15.69026
2023-04-27T00:18:40.618Z,15.374442
2023-04-27T00:23:42.097Z,15.868836
2023-04-27T00:28:43.488Z,15.087392
2023-04-27T00:33:44.969Z,14.83432
2023-04-27T00:38:46.465Z,15.023222
2023-04-27T00:43:47.873Z,14.866982
2023-04-27T00:48:49.212Z,14.598916
2023-04-27T00:53:50.780Z,14.451238
2023-04-27T00:58:52.067Z,14.5448
2023-04-27T01:03:53.509Z,14.293058
2023-04-27T01:08:55.387Z,14.654524
2023-04-27T01:13:56.749Z,14.310278
2023-04-27T01:18:58.019Z,14.099488
2023-04-27T01:23:59.384Z,14.617276
2023-04-27T01:29:00.718Z,14.079718
2023-04-27T01:34:02.064Z,13.829658
2023-04-27T01:39:03.308Z,14.384246
2023-04-27T01:44:04.689Z,14.077248
2023-04-27T01:49:05.974Z,13.710938
2023-04-27T01:54:07.586Z,14.070898
2023-04-27T01:59:08.867Z,13.907778
2023-04-27T02:04:10.350Z,14.235686
2023-04-27T02:09:12.047Z,13.847312
2023-04-27T02:14:13.526Z,14.132422
2023-04-27T02:19:15.163Z,13.737588
2023-04-27T02:24:16.778Z,13.86612
2023-04-27T02:29:18.043Z,14.437738
2023-04-27T02:34:19.723Z,14.269502
2023-04-27T02:39:20.976Z,13.95173
2023-04-27T02:44:22.451Z,13.472984
2023-04-27T02:49:24.020Z,13.885634
2023-04-27T02:54:25.600Z,13.873448
2023-04-27T02:59:26.879Z,13.904508
2023-04-27T03:04:28.690Z,14.402348
2023-04-27T03:09:30.258Z,13.312238
2023-04-27T03:14:31.595Z,13.62161
2023-04-27T03:19:32.942Z,13.570426
2023-04-27T03:24:34.452Z,13.599546
2023-04-27T03:29:35.902Z,13.346936
2023-04-27T03:34:37.241Z,13.370588
2023-04-27T03:39:38.618Z,13.610144
2023-04-27T03:44:40.084Z,13.428312
2023-04-27T03:49:41.483Z,13.416928
2023-04-27T03:54:42.882Z,13.175864
2023-04-27T03:59:44.506Z,13.206586
2023-04-27T04:04:45.954Z,13.516406
2023-04-27T04:09:47.786Z,13.020344
2023-04-27T04:14:49.299Z,13.425924
2023-04-27T04:19:50.565Z,13.276144
2023-04-27T04:24:51.957Z,13.119198
2023-04-27T04:29:53.230Z,12.877076
2023-04-27T04:34:54.687Z,13.022108
2023-04-27T04:39:56.292Z,12.775944
2023-04-27T04:44:57.570Z,12.603556
2023-04-27T04:49:59.161Z,13.082398
2023-04-27T04:55:00.587Z,12.663574
2023-04-27T05:00:01.999Z,13.67114
2023-04-27T05:05:03.440Z,12.755276
2023-04-27T05:10:04.751Z,12.97726
2023-04-27T05:15:06.207Z,13.173218
2023-04-27T05:20:07.698Z,13.578798
2023-04-27T05:25:08.964Z,13.601758
2023-04-27T05:30:10.455Z,13.820214
2023-04-27T05:35:11.703Z,14.214232
2023-04-27T05:40:13.330Z,14.794602
2023-04-27T05:45:14.708Z,14.964072
2023-04-27T05:50:16.086Z,15.55257
2023-04-27T05:55:17.489Z,15.652482
2023-04-27T06:00:18.834Z,15.263036
2023-04-27T06:05:20.331Z,15.757266
2023-04-27T06:10:21.685Z,16.126236
2023-04-27T06:15:22.950Z,15.714454
2023-04-27T06:20:24.232Z,16.11211
2023-04-27T06:25:27.183Z,17.747066
2023-04-27T06:30:28.782Z,18.129904
2023-04-27T06:35:30.112Z,17.951776
2023-04-27T06:40:31.332Z,19.23216
2023-04-27T06:45:32.734Z,19.112992
2023-04-27T06:50:34.374Z,19.680146
2023-04-27T06:55:36.058Z,19.727192
2023-04-27T07:00:37.508Z,20.026618
2023-04-27T07:05:39.208Z,19.880148
2023-04-27T07:10:40.790Z,20.297616
2023-04-27T07:15:42.336Z,20.28349
2023-04-27T07:20:44.087Z,20.233622
2023-04-27T07:25:45.681Z,19.79622
2023-04-27T07:30:47.390Z,20.506818
2023-04-27T07:35:49.133Z,21.099144
2023-04-27T07:40:50.462Z,22.176908
2023-04-27T07:45:52.118Z,22.073386
2023-04-27T07:50:53.415Z,21.900224
2023-04-27T07:55:54.790Z,22.475968
2023-04-27T08:00:56.202Z,22.899828
2023-04-27T08:05:58.194Z,23.64929
2023-04-27T08:11:00.083Z,23.759394
2023-04-27T08:16:02.823Z,24.150416
2023-04-27T08:21:04.800Z,24.489248
2023-04-27T08:26:06.681Z,23.753898
2023-04-27T08:31:09.008Z,24.218874
2023-04-27T08:36:11.037Z,25.289882
2023-04-27T08:41:21.332Z,24.733284
2023-04-27T08:46:23.921Z,24.944916
2023-04-27T08:51:25.503Z,23.813686
2023-04-27T08:56:26.992Z,25.385182
2023-04-27T09:01:28.525Z,25.635446
2023-04-27T09:06:29.930Z,26.27855
2023-04-27T09:11:31.279Z,25.014202
2023-04-27T09:16:32.899Z,26.358896
2023-04-27T09:21:34.344Z,26.48778
2023-04-27T09:26:35.951Z,26.240556
2023-04-27T09:31:37.885Z,25.607234
2023-04-27T09:36:39.579Z,25.926758
2023-04-27T09:41:41.199Z,25.467766
2023-04-27T09:46:42.976Z,26.792784
2023-04-27T09:51:44.924Z,25.381206
2023-04-27T09:56:46.683Z,24.99587
2023-04-27T10:01:48.395Z,25.052848
2023-04-27T10:06:50.136Z,25.110628
2023-04-27T10:11:51.898Z,24.685574
2023-04-27T10:16:53.874Z,25.345544
2023-04-27T10:21:55.741Z,25.191652
2023-04-27T10:26:57.837Z,27.150724
2023-04-27T10:31:59.956Z,26.792106
2023-04-27T10:37:02.230Z,27.33546
2023-04-27T10:42:05.036Z,27.325066
2023-04-27T10:47:07.043Z,24.735252
2023-04-27T10:52:09.088Z,24.887042
2023-04-27T10:57:11.207Z,24.621172
2023-04-27T11:02:13.230Z,24.727952
2023-04-27T11:07:15.312Z,24.787576
2023-04-27T11:12:16.932Z,24.314906
2023-04-27T11:17:18.474Z,23.532334
2023-04-27T11:22:20.212Z,21.217864
2023-04-27T11:27:22.260Z,18.464272
2023-04-27T11:32:24.060Z,19.10424
2023-04-27T11:37:25.664Z,19.606884
2023-04-27T11:42:27.520Z,21.280488
2023-04-27T11:47:29.486Z,22.606318
2023-04-27T11:52:31.369Z,21.926156
2023-04-27T11:57:33.296Z,22.16361
2023-04-27T12:02:35.354Z,22.490922
2023-04-27T12:07:37.434Z,22.762124
2023-04-27T12:12:39.675Z,22.98419
2023-04-27T12:17:41.736Z,23.364858
2023-04-27T12:22:44.329Z,23.92649
2023-04-27T12:27:46.253Z,23.528792
2023-04-27T12:32:49.081Z,24.048752
2023-04-27T12:37:51.629Z,23.10287
2023-04-27T12:42:53.722Z,22.829022
2023-04-27T12:48:02.761Z,23.784796
2023-04-27T12:53:06.006Z,23.400804
2023-04-27T12:58:07.869Z,24.04061
2023-04-27T13:03:10.014Z,23.51202
2023-04-27T13:08:11.957Z,23.675344
2023-04-27T13:13:13.783Z,23.94409
2023-04-27T13:18:15.706Z,23.894262
2023-04-27T13:23:17.562Z,24.00039
2023-04-27T13:28:19.786Z,23.61884
2023-04-27T13:33:23.533Z,23.551264
2023-04-27T13:38:26.327Z,23.70692
2023-04-27T13:43:29.252Z,23.760968
2023-04-27T13:48:32.220Z,23.67666
2023-04-27T13:53:35.048Z,23.57843
2023-04-27T13:58:37.085Z,23.984256
2023-04-27T14:03:40.341Z,24.360758
2023-04-27T14:08:43.392Z,24.250858
2023-04-27T14:13:45.014Z,24.488556
2023-04-27T14:18:46.441Z,24.18818
2023-04-27T14:23:48.113Z,25.414112
2023-04-27T14:28:50.098Z,24.5351
2023-04-27T14:33:52.789Z,24.094604
2023-04-27T14:38:55.808Z,24.046052
2023-04-27T14:43:58.688Z,24.120834
2023-04-27T14:49:00.873Z,24.317498
2023-04-27T14:54:02.622Z,24.185032
2023-04-27T14:59:04.457Z,24.187298
2023-04-27T15:04:06.114Z,23.754102
2023-04-27T15:09:08.030Z,23.416884
2023-04-27T15:14:09.576Z,23.907262
2023-04-27T15:19:11.223Z,23.48902
2023-04-27T15:24:13.202Z,23.363664
2023-04-27T15:29:15.075Z,23.201738
2023-04-27T15:34:16.856Z,22.27081
2023-04-27T15:39:18.485Z,22.088272
2023-04-27T15:44:20.487Z,22.337464
2023-04-27T15:49:22.758Z,22.168414
2023-04-27T15:54:25.315Z,22.197344
2023-04-27T15:59:27.778Z,21.830124
2023-04-27T16:04:30.413Z,21.719776
2023-04-27T16:09:32.298Z,21.748218
2023-04-27T16:14:34.127Z,21.638562
2023-04-27T16:19:36.352Z,21.72861
2023-04-27T16:24:38.039Z,21.286784
2023-04-27T16:29:39.804Z,21.40066
2023-04-27T16:34:41.475Z,21.633718
2023-04-27T16:39:43.148Z,21.379044
2023-04-27T16:44:45.193Z,20.952416
2023-04-27T16:49:47.604Z,21.401108
2023-04-27T16:54:50.370Z,20.754938
2023-04-27T16:59:53.089Z,20.88754
2023-04-27T17:04:55.414Z,20.922726
2023-04-27T17:09:57.493Z,20.217162
2023-04-27T17:14:59.555Z,20.162232
2023-04-27T17:20:01.638Z,19.932092
2023-04-27T17:25:04.051Z,19.71274
2023-04-27T17:30:08.260Z,19.318598
2023-04-27T17:35:10.525Z,19.735184
2023-04-27T17:40:12.442Z,19.36274
2023-04-27T17:45:14.739Z,19.97409
2023-04-27T17:50:17.116Z,19.853606
2023-04-27T17:55:19.610Z,19.600194
2023-04-27T18:00:22.774Z,19.642558
2023-04-27T18:05:26.297Z,18.94211
2023-04-27T18:10:29.180Z,19.044588
2023-04-27T18:15:32.024Z,18.125222
2023-04-27T18:20:34.710Z,18.72573
2023-04-27T18:25:37.109Z,17.848932
2023-04-27T18:30:39.313Z,19.0587
2023-04-27T18:35:41.337Z,18.96028
2023-04-27T18:40:43.323Z,18.852144
2023-04-27T18:45:45.320Z,18.567468
2023-04-27T18:50:47.408Z,18.234322
2023-04-27T18:55:49.322Z,18.01691
2023-04-27T19:00:51.723Z,17.987776
2023-04-27T19:05:54.448Z,17.963242
2023-04-27T19:10:58.497Z,18.334696
2023-04-27T19:16:01.741Z,17.64414
2023-04-27T19:21:03.942Z,17.724472
2023-04-27T19:26:13.155Z,17.34447
2023-04-27T19:31:16.289Z,17.08848
2023-04-27T19:36:18.115Z,16.945566
2023-04-27T19:41:19.715Z,17.242156
2023-04-27T19:46:21.708Z,16.993222
2023-04-27T19:51:23.497Z,16.597154
2023-04-27T19:56:26.134Z,16.910258
2023-04-27T20:01:28.135Z,17.46813
2023-04-27T20:06:29.888Z,17.42354
2023-04-27T20:11:31.577Z,16.538994
2023-04-27T20:16:33.540Z,17.011242
2023-04-27T20:21:36.477Z,17.154768
2023-04-27T20:26:39.053Z,17.13649
2023-04-27T20:31:41.655Z,16.699278
2023-04-27T20:36:43.700Z,16.462544
2023-04-27T20:41:45.752Z,16.01175
2023-04-27T20:46:47.826Z,16.055348
2023-04-27T20:51:50.076Z,15.723898
2023-04-27T20:56:51.682Z,16.275406
2023-04-27T21:01:53.092Z,15.938664
2023-04-27T21:06:54.378Z,15.431108
2023-04-27T21:11:55.672Z,15.795844
2023-04-27T21:16:57.075Z,15.938922
2023-04-27T21:21:58.711Z,14.985092
2023-04-27T21:27:00.115Z,14.969122
2023-04-27T21:32:01.482Z,15.578162
2023-04-27T21:37:02.785Z,16.429882
2023-04-27T21:42:04.129Z,16.501556
2023-04-27T21:47:05.605Z,15.967608
2023-04-27T21:52:06.993Z,16.225702
2023-04-27T21:57:08.317Z,15.633514
2023-04-27T22:02:09.604Z,15.441614
2023-04-27T22:07:10.890Z,15.297478
2023-04-27T22:12:12.460Z,14.804048
2023-04-27T22:17:13.973Z,14.609772
2023-04-27T22:22:15.372Z,14.742714
2023-04-27T22:27:17.008Z,14.46466
2023-04-27T22:32:18.748Z,14.6615
2023-04-27T22:37:20.350Z,14.600152
2023-04-27T22:42:21.952Z,14.752416
2023-04-27T22:47:23.630Z,14.30093
2023-04-27T22:52:25.014Z,13.803376
2023-04-27T22:57:26.358Z,13.67308
2023-04-27T23:02:28.190Z,14.542074
2023-04-27T23:07:29.968Z,14.335356
2023-04-27T23:12:31.625Z,14.080696
2023-04-27T23:17:33.224Z,13.871332
2023-04-27T23:22:34.558Z,14.026418
2023-04-27T23:27:35.908Z,13.952274
2023-04-27T23:32:37.367Z,13.652332
2023-04-27T23:37:38.764Z,13.375446
2023-04-27T23:42:40.040Z,13.676608
2023-04-27T23:47:41.730Z,13.462386
2023-04-27T23:52:43.189Z,14.4628
2023-04-27T23:57:44.586Z,13.53345
